createdAt,value
2019-04-07T00:00:47.791Z,112.97
2019-04-07T00:03:17.390Z,111.50
2019-04-07T00:05:47.243Z,110.90
2019-04-07T00:08:16.967Z,119.73
2019-04-07T00:10:46.877Z,122.43
2019-04-07T00:13:17.120Z,121.90
2019-04-07T00:15:46.669Z,112.37
2019-04-07T00:18:16.863Z,114.77
2019-04-07T00:20:46.371Z,114.53
2019-04-07T00:23:16.255Z,119.80
2019-04-07T00:25:45.830Z,116.13
2019-04-07T00:28:16.397Z,116.23
2019-04-07T00:30:45.852Z,117.63
2019-04-07T00:33:15.218Z,112.87
2019-04-07T00:35:44.672Z,121.67
2019-04-07T00:38:14.132Z,116.03
2019-04-07T00:40:43.787Z,113.87
2019-04-07T00:43:13.695Z,119.20
2019-04-07T00:45:43.222Z,117.63
2019-04-07T00:48:13.161Z,122.93
2019-04-07T00:50:42.622Z,126.20
2019-04-07T00:53:12.351Z,121.00
2019-04-07T00:55:42.358Z,129.70
2019-04-07T00:58:11.874Z,117.13
2019-04-07T01:00:42.466Z,119.73
2019-04-07T01:03:12.303Z,120.30
2019-04-07T01:05:43.548Z,125.63
2019-04-07T01:08:13.911Z,126.50
2019-04-07T01:10:43.348Z,120.67
2019-04-07T01:13:12.973Z,127.27
2019-04-07T01:15:42.766Z,125.27
2019-04-07T01:18:13.131Z,129.13
2019-04-07T01:20:43.025Z,130.27
2019-04-07T01:23:12.738Z,122.93
2019-04-07T01:25:42.112Z,123.20
2019-04-07T01:28:12.082Z,138.87
2019-04-07T01:30:41.600Z,124.63
2019-04-07T01:33:11.718Z,126.13
2019-04-07T01:35:47.952Z,126.47
2019-04-07T01:38:12.610Z,131.93
2019-04-07T01:40:44.330Z,132.20
2019-04-07T01:43:22.744Z,130.30
2019-04-07T01:45:56.750Z,134.93
2019-04-07T01:48:39.762Z,132.80
2019-04-07T01:51:10.816Z,136.90
2019-04-07T01:53:51.005Z,136.80
2019-04-07T01:56:25.110Z,146.93
2019-04-07T01:58:58.914Z,142.03
2019-04-07T02:01:30.619Z,149.13
2019-04-07T02:04:05.951Z,137.87
2019-04-07T02:06:53.910Z,139.23
2019-04-07T02:09:25.672Z,132.37
2019-04-07T02:12:00.615Z,124.77
2019-04-07T02:14:37.815Z,140.80
2019-04-07T02:17:14.730Z,137.30
2019-04-07T02:19:57.085Z,135.30
2019-04-07T02:22:37.713Z,139.23
2019-04-07T02:25:20.813Z,140.20
2019-04-07T02:27:54.642Z,138.57
2019-04-07T02:30:35.179Z,141.60
2019-04-07T02:33:12.647Z,146.03
2019-04-07T02:35:46.887Z,151.13
2019-04-07T02:38:19.037Z,152.40
2019-04-07T02:41:06.669Z,153.23
2019-04-07T02:43:42.505Z,151.23
2019-04-07T02:46:16.944Z,162.67
2019-04-07T02:48:51.319Z,156.07
2019-04-07T02:51:28.431Z,158.97
2019-04-07T02:54:02.540Z,156.80
2019-04-07T02:56:42.445Z,164.30
2019-04-07T02:59:14.669Z,157.23
2019-04-07T03:01:48.475Z,149.97
2019-04-07T03:04:20.537Z,169.20
2019-04-07T03:07:06.841Z,161.77
2019-04-07T03:09:47.399Z,155.13
2019-04-07T03:12:25.126Z,156.67
2019-04-07T03:14:59.007Z,164.57
2019-04-07T03:17:42.056Z,157.90
2019-04-07T03:20:16.868Z,154.40
2019-04-07T03:22:57.087Z,152.93
2019-04-07T03:25:45.148Z,161.80
2019-04-07T03:28:16.308Z,166.43
2019-04-07T03:30:49.410Z,160.27
2019-04-07T03:33:25.340Z,162.33
2019-04-07T03:36:01.815Z,157.17
2019-04-07T03:38:33.509Z,150.90
2019-04-07T03:41:22.471Z,152.97
2019-04-07T03:43:59.325Z,161.63
2019-04-07T03:46:47.442Z,162.00
2019-04-07T03:49:18.784Z,179.43
2019-04-07T03:51:49.891Z,159.97
2019-04-07T03:54:26.960Z,157.27
2019-04-07T03:57:00.984Z,170.53
2019-04-07T03:59:35.285Z,168.43
2019-04-07T04:02:15.393Z,169.33
2019-04-07T04:04:46.789Z,157.70
2019-04-07T04:07:28.464Z,162.13
2019-04-07T04:09:53.724Z,163.80
2019-04-07T04:12:27.861Z,158.07
2019-04-07T04:15:00.197Z,156.83
2019-04-07T04:17:30.673Z,159.43
2019-04-07T04:20:00.262Z,166.93
2019-04-07T04:22:30.676Z,161.60
2019-04-07T04:25:00.931Z,164.03
2019-04-07T04:27:31.291Z,158.90
2019-04-07T04:30:01.161Z,161.60
2019-04-07T04:32:31.578Z,149.30
2019-04-07T04:35:01.097Z,161.70
2019-04-07T04:37:39.923Z,145.63
2019-04-07T04:40:01.638Z,147.13
2019-04-07T04:42:31.242Z,157.87
2019-04-07T04:45:02.432Z,149.47
2019-04-07T04:47:32.786Z,134.80
2019-04-07T04:50:02.538Z,142.73
2019-04-07T04:52:32.009Z,148.07
2019-04-07T04:55:02.023Z,149.37
2019-04-07T04:57:32.125Z,138.47
2019-04-07T05:00:02.184Z,145.97
2019-04-07T05:02:32.708Z,156.13
2019-04-07T05:05:02.668Z,156.93
2019-04-07T05:07:32.205Z,155.03
2019-04-07T05:10:01.759Z,143.03
2019-04-07T05:12:32.286Z,136.77
2019-04-07T05:15:01.827Z,143.27
2019-04-07T05:17:32.674Z,153.03
2019-04-07T05:20:02.625Z,140.10
2019-04-07T05:22:32.149Z,143.80
2019-04-07T05:25:02.253Z,156.90
2019-04-07T05:27:31.716Z,150.47
2019-04-07T05:30:01.298Z,157.37
2019-04-07T05:32:31.117Z,151.77
2019-04-07T05:35:01.049Z,145.83
2019-04-07T05:37:32.109Z,142.57
2019-04-07T05:40:02.905Z,139.83
2019-04-07T05:42:32.860Z,134.40
2019-04-07T05:45:02.571Z,125.53
2019-04-07T05:47:33.017Z,143.57
2019-04-07T05:50:04.063Z,144.33
2019-04-07T05:52:36.867Z,143.90
2019-04-07T05:55:06.059Z,140.90
2019-04-07T05:57:36.067Z,164.30
2019-04-07T06:00:13.629Z,166.33
2019-04-07T06:02:42.836Z,164.63
2019-04-07T06:05:12.413Z,159.43
2019-04-07T06:07:42.532Z,175.77
2019-04-07T06:10:12.260Z,168.30
2019-04-07T06:12:44.891Z,165.07
2019-04-07T06:15:17.676Z,174.27
2019-04-07T06:17:44.681Z,152.03
2019-04-07T06:20:15.912Z,131.87
2019-04-07T06:22:46.833Z,115.17
2019-04-07T06:25:16.722Z,126.43
2019-04-07T06:27:46.729Z,107.43
2019-04-07T06:30:17.579Z,111.17
2019-04-07T06:32:47.281Z,104.90
2019-04-07T06:35:16.966Z,109.37
2019-04-07T06:37:46.554Z,111.13
2019-04-07T06:40:20.394Z,113.00
2019-04-07T06:42:48.803Z,111.63
2019-04-07T06:45:23.653Z,108.27
2019-04-07T06:48:00.224Z,115.33
2019-04-07T06:50:53.110Z,120.40
2019-04-07T06:53:21.176Z,124.67
2019-04-07T06:56:11.033Z,139.03
2019-04-07T06:58:45.006Z,155.27
2019-04-07T07:01:26.503Z,161.40
2019-04-07T07:04:13.990Z,160.40
2019-04-07T07:06:48.107Z,164.53
2019-04-07T07:09:30.785Z,169.50
2019-04-07T07:12:05.054Z,152.00
2019-04-07T07:14:46.938Z,173.07
2019-04-07T07:17:23.830Z,164.33
2019-04-07T07:20:05.647Z,160.27
2019-04-07T07:22:40.208Z,161.10
2019-04-07T07:25:10.332Z,160.37
2019-04-07T07:27:41.565Z,148.73
2019-04-07T07:30:10.721Z,167.80
2019-04-07T07:32:40.886Z,163.70
2019-04-07T07:35:14.467Z,181.77
2019-04-07T07:37:41.655Z,163.13
2019-04-07T07:40:12.422Z,159.03
2019-04-07T07:42:42.249Z,162.70
2019-04-07T07:45:13.934Z,158.23
2019-04-07T07:47:43.779Z,156.50
2019-04-07T07:50:13.595Z,162.97
2019-04-07T07:52:43.135Z,164.27
2019-04-07T07:55:13.160Z,164.17
2019-04-07T07:57:42.636Z,162.37
2019-04-07T08:00:12.574Z,166.83
2019-04-07T08:02:42.021Z,150.00
2019-04-07T08:05:11.528Z,168.20
2019-04-07T08:07:43.643Z,174.43
2019-04-07T08:10:12.717Z,156.47
2019-04-07T08:12:42.300Z,162.00
2019-04-07T08:15:12.608Z,164.20
2019-04-07T08:17:42.128Z,148.47
2019-04-07T08:20:13.029Z,161.30
2019-04-07T08:22:43.760Z,161.30
2019-04-07T08:25:14.202Z,152.53
2019-04-07T08:27:45.242Z,153.77
2019-04-07T08:30:14.852Z,144.70
2019-04-07T08:32:44.281Z,150.17
2019-04-07T08:35:14.275Z,141.00
2019-04-07T08:37:46.465Z,149.53
2019-04-07T08:40:15.277Z,145.03
2019-04-07T08:42:48.347Z,133.67
2019-04-07T08:45:17.887Z,137.77
2019-04-07T08:47:49.549Z,144.47
2019-04-07T08:50:20.903Z,130.40
2019-04-07T08:52:49.869Z,139.73
2019-04-07T08:55:20.453Z,141.70
2019-04-07T08:57:50.619Z,129.20
2019-04-07T09:00:21.981Z,124.30
2019-04-07T09:03:01.638Z,128.03
2019-04-07T09:05:27.696Z,134.10
2019-04-07T09:07:54.072Z,126.93
2019-04-07T09:10:27.805Z,120.00
2019-04-07T09:13:01.705Z,119.13
2019-04-07T09:15:29.919Z,121.60
2019-04-07T09:18:06.966Z,117.73
2019-04-07T09:20:40.319Z,121.77
2019-04-07T09:23:11.346Z,117.53
2019-04-07T09:25:58.523Z,117.17
2019-04-07T09:28:33.330Z,116.23
2019-04-07T09:31:07.432Z,110.55
2019-04-07T09:33:38.850Z,112.27
2019-04-07T09:36:24.951Z,118.93
2019-04-07T09:39:13.351Z,108.23
2019-04-07T09:41:55.149Z,100.10
2019-04-07T09:44:26.581Z,105.63
2019-04-07T09:47:09.911Z,99.57
2019-04-07T09:49:57.349Z,98.33
2019-04-07T09:52:31.860Z,93.33
2019-04-07T09:55:19.136Z,90.25
2019-04-07T09:57:51.787Z,83.20
2019-04-07T10:00:24.006Z,84.03
2019-04-07T10:03:14.906Z,87.83
2019-04-07T10:05:53.848Z,83.13
2019-04-07T10:08:28.197Z,72.23
2019-04-07T10:11:03.030Z,66.70
2019-04-07T10:13:43.201Z,69.23
2019-04-07T10:16:26.987Z,68.37
2019-04-07T10:19:10.952Z,65.87
2019-04-07T10:21:45.009Z,63.48
2019-04-07T10:24:25.880Z,64.30
2019-04-07T10:27:17.529Z,59.15
2019-04-07T10:29:48.151Z,65.57
2019-04-07T10:32:20.052Z,62.23
2019-04-07T10:34:51.145Z,63.65
2019-04-07T10:37:38.930Z,62.70
2019-04-07T10:40:25.377Z,55.95
2019-04-07T10:43:08.600Z,90.67
2019-04-07T10:45:52.014Z,66.25
2019-04-07T10:48:32.183Z,59.67
2019-04-07T10:51:06.791Z,33.95
2019-04-07T10:53:43.878Z,30.17
2019-04-07T10:56:24.282Z,23.80
2019-04-07T10:59:01.845Z,24.30
2019-04-07T11:01:36.336Z,22.32
2019-04-07T11:04:17.062Z,24.05
2019-04-07T11:07:04.558Z,29.52
2019-04-07T11:09:48.107Z,24.95
2019-04-07T11:12:25.108Z,31.50
2019-04-07T11:14:57.102Z,28.05
2019-04-07T11:17:31.544Z,28.17
2019-04-07T11:20:02.964Z,27.58
2019-04-07T11:22:50.531Z,24.50
2019-04-07T11:25:24.325Z,26.17
2019-04-07T11:27:55.505Z,28.23
2019-04-07T11:30:35.579Z,28.12
2019-04-07T11:33:07.128Z,21.90
2019-04-07T11:35:38.290Z,26.75
2019-04-07T11:38:10.198Z,26.07
2019-04-07T11:40:57.832Z,21.85
2019-04-07T11:43:28.992Z,27.80
2019-04-07T11:46:07.414Z,20.57
2019-04-07T11:48:44.969Z,21.57
2019-04-07T11:51:22.804Z,16.25
2019-04-07T11:53:59.904Z,20.45
2019-04-07T11:56:49.084Z,18.92
2019-04-07T11:59:26.321Z,16.67
2019-04-07T12:01:57.444Z,20.68
2019-04-07T12:04:29.469Z,21.27
2019-04-07T12:07:03.545Z,16.55
2019-04-07T12:09:37.188Z,17.35
2019-04-07T12:12:24.666Z,19.92
2019-04-07T12:15:06.316Z,26.57
2019-04-07T12:17:53.411Z,24.02
2019-04-07T12:20:34.941Z,25.80
2019-04-07T12:23:10.244Z,30.32
2019-04-07T12:25:41.648Z,22.37
2019-04-07T12:28:21.796Z,20.92
2019-04-07T12:31:11.869Z,22.98
2019-04-07T12:33:50.596Z,34.55
2019-04-07T12:36:26.682Z,22.22
2019-04-07T12:38:58.546Z,20.90
2019-04-07T12:41:45.891Z,14.95
2019-04-07T12:44:17.133Z,17.07
2019-04-07T12:46:48.248Z,15.43
2019-04-07T12:49:33.355Z,16.15
2019-04-07T12:52:07.390Z,16.70
2019-04-07T12:54:43.543Z,14.80
2019-04-07T12:57:29.000Z,16.55
2019-04-07T13:00:16.781Z,17.45
2019-04-07T13:02:51.650Z,14.58
2019-04-07T13:05:24.127Z,18.17
2019-04-07T13:08:08.050Z,18.55
2019-04-07T13:10:39.423Z,15.58
2019-04-07T13:13:13.470Z,18.00
2019-04-07T13:15:49.277Z,18.07
2019-04-07T13:18:18.813Z,17.50
2019-04-07T13:20:53.285Z,18.48
2019-04-07T13:23:27.634Z,21.15
2019-04-07T13:26:10.689Z,21.27
2019-04-07T13:28:44.577Z,21.82
2019-04-07T13:31:31.920Z,17.48
2019-04-07T13:34:20.916Z,18.20
2019-04-07T13:36:58.017Z,17.35
2019-04-07T13:39:42.831Z,16.90
2019-04-07T13:42:19.622Z,21.35
2019-04-07T13:45:03.926Z,20.15
2019-04-07T13:47:42.264Z,21.57
2019-04-07T13:50:14.082Z,19.92
2019-04-07T13:52:54.152Z,25.80
2019-04-07T13:55:27.394Z,19.23
2019-04-07T13:58:15.067Z,22.25
2019-04-07T14:00:48.792Z,21.55
2019-04-07T14:03:37.031Z,19.12
2019-04-07T14:06:14.928Z,20.25
2019-04-07T14:08:50.554Z,21.20
2019-04-07T14:11:27.424Z,17.37
2019-04-07T14:14:07.976Z,15.10
2019-04-07T14:16:40.092Z,16.07
2019-04-07T14:19:11.376Z,16.02
2019-04-07T14:21:58.874Z,18.00
2019-04-07T14:24:47.221Z,20.77
2019-04-07T14:27:18.666Z,19.90
2019-04-07T14:29:53.006Z,16.52
2019-04-07T14:32:24.111Z,15.18
2019-04-07T14:35:01.114Z,16.10
2019-04-07T14:37:51.278Z,16.00
2019-04-07T14:40:38.882Z,18.48
2019-04-07T14:43:13.597Z,15.85
2019-04-07T14:45:48.766Z,13.30
2019-04-07T14:48:32.568Z,14.20
2019-04-07T14:51:06.596Z,14.20
2019-04-07T14:53:47.172Z,15.00
2019-04-07T14:56:24.632Z,14.23
2019-04-07T14:58:56.286Z,16.90
2019-04-07T15:01:36.798Z,14.63
2019-04-07T15:04:06.467Z,15.03
2019-04-07T15:06:36.640Z,14.75
2019-04-07T15:09:10.986Z,14.40
2019-04-07T15:11:42.298Z,14.03
2019-04-07T15:14:12.691Z,14.65
2019-04-07T15:16:44.755Z,14.05
2019-04-07T15:19:14.554Z,11.53
2019-04-07T15:21:44.265Z,12.40
2019-04-07T15:24:13.972Z,16.67
2019-04-07T15:26:46.963Z,12.50
2019-04-07T15:29:14.712Z,12.75
2019-04-07T15:31:44.343Z,16.52
2019-04-07T15:34:14.419Z,13.90
2019-04-07T15:36:47.986Z,13.98
2019-04-07T15:39:16.234Z,13.65
2019-04-07T15:41:46.738Z,11.68
2019-04-07T15:44:16.889Z,13.60
2019-04-07T15:46:50.894Z,18.30
2019-04-07T15:49:18.394Z,14.70
2019-04-07T15:51:48.773Z,13.35
2019-04-07T15:54:22.317Z,13.15
2019-04-07T15:56:50.493Z,11.97
2019-04-07T15:59:21.013Z,12.03
2019-04-07T16:01:50.598Z,12.30
2019-04-07T16:04:25.215Z,13.30
2019-04-07T16:06:51.611Z,15.03
2019-04-07T16:09:31.475Z,18.12
2019-04-07T16:11:53.277Z,11.03
2019-04-07T16:14:23.077Z,12.85
2019-04-07T16:16:54.053Z,13.68
2019-04-07T16:19:36.493Z,12.68
2019-04-07T16:21:55.470Z,12.50
2019-04-07T16:24:25.762Z,13.68
2019-04-07T16:26:55.272Z,14.45
2019-04-07T16:29:25.099Z,10.38
2019-04-07T16:31:57.077Z,11.03
2019-04-07T16:34:26.309Z,11.03
2019-04-07T16:36:58.859Z,12.95
2019-04-07T16:39:29.176Z,10.60
2019-04-07T16:41:58.107Z,9.23
2019-04-07T16:44:27.782Z,10.23
2019-04-07T16:46:59.171Z,10.18
2019-04-07T16:49:28.313Z,10.03
2019-04-07T16:51:59.977Z,9.95
2019-04-07T16:54:28.946Z,10.50
2019-04-07T16:56:58.745Z,11.85
2019-04-07T16:59:28.747Z,9.05
2019-04-07T17:01:59.110Z,12.88
2019-04-07T17:04:28.848Z,10.45
2019-04-07T17:07:18.125Z,10.08
2019-04-07T17:09:48.933Z,9.55
2019-04-07T17:12:18.512Z,10.58
2019-04-07T17:14:49.051Z,10.82
2019-04-07T17:17:21.549Z,9.75
2019-04-07T17:19:49.947Z,8.88
2019-04-07T17:22:20.008Z,9.63
2019-04-07T17:24:50.171Z,11.43
2019-04-07T17:27:20.502Z,10.25
2019-04-07T17:29:54.071Z,9.53
2019-04-07T17:32:23.213Z,9.68
2019-04-07T17:34:53.031Z,9.23
2019-04-07T17:37:25.956Z,9.80
2019-04-07T17:40:14.081Z,11.88
2019-04-07T17:42:42.542Z,9.98
2019-04-07T17:45:23.585Z,8.30
2019-04-07T17:47:55.056Z,9.43
2019-04-07T17:50:32.123Z,9.10
2019-04-07T17:53:14.130Z,11.08
2019-04-07T17:55:45.781Z,8.93
2019-04-07T17:58:20.239Z,9.35
2019-04-07T18:01:00.417Z,8.85
2019-04-07T18:03:32.821Z,10.23
2019-04-07T18:06:20.270Z,10.30
2019-04-07T18:09:10.798Z,9.65
2019-04-07T18:11:41.323Z,11.43
2019-04-07T18:14:31.264Z,11.78
2019-04-07T18:17:15.117Z,10.38
2019-04-07T18:20:08.304Z,9.95
2019-04-07T18:22:37.188Z,12.23
2019-04-07T18:25:21.708Z,8.98
2019-04-07T18:27:55.486Z,12.00
2019-04-07T18:30:33.612Z,12.33
2019-04-07T18:33:05.472Z,25.40
2019-04-07T18:35:37.605Z,29.42
2019-04-07T18:38:14.765Z,22.93
2019-04-07T18:40:49.507Z,16.17
2019-04-07T18:43:21.519Z,12.70
2019-04-07T18:45:58.960Z,10.20
2019-04-07T18:48:45.811Z,10.00
2019-04-07T18:51:17.750Z,9.95
2019-04-07T18:53:48.978Z,9.53
2019-04-07T18:56:21.376Z,8.80
2019-04-07T18:58:58.572Z,13.25
2019-04-07T19:01:30.215Z,13.55
2019-04-07T19:04:16.046Z,10.48
2019-04-07T19:06:48.485Z,9.33
2019-04-07T19:09:30.266Z,10.40
2019-04-07T19:12:13.424Z,10.68
2019-04-07T19:15:02.461Z,10.50
2019-04-07T19:17:28.242Z,12.35
2019-04-07T19:20:08.837Z,13.32
2019-04-07T19:22:56.223Z,18.53
2019-04-07T19:25:27.557Z,16.65
2019-04-07T19:28:08.131Z,13.38
2019-04-07T19:30:41.533Z,18.27
2019-04-07T19:33:15.031Z,12.50
2019-04-07T19:35:49.756Z,11.50
2019-04-07T19:38:37.866Z,12.55
2019-04-07T19:41:08.910Z,11.40
2019-04-07T19:43:55.288Z,16.10
2019-04-07T19:46:44.132Z,17.92
2019-04-07T19:49:27.294Z,30.97
2019-04-07T19:52:05.425Z,30.97
2019-04-07T19:54:52.834Z,35.95
2019-04-07T19:57:24.095Z,37.05
2019-04-07T19:59:55.204Z,40.20
2019-04-07T20:02:32.711Z,39.23
2019-04-07T20:05:19.530Z,44.88
2019-04-07T20:07:56.105Z,38.10
2019-04-07T20:10:39.310Z,43.02
2019-04-07T20:13:26.391Z,47.65
2019-04-07T20:15:58.842Z,57.35
2019-04-07T20:18:37.345Z,72.05
2019-04-07T20:21:15.728Z,73.87
2019-04-07T20:23:44.164Z,82.97
2019-04-07T20:26:18.618Z,83.97
2019-04-07T20:28:52.030Z,88.50
2019-04-07T20:31:23.946Z,100.38
2019-04-07T20:34:02.139Z,97.02
2019-04-07T20:36:40.150Z,106.07
2019-04-07T20:39:32.561Z,107.53
2019-04-07T20:42:03.045Z,112.97
2019-04-07T20:44:43.205Z,116.17
2019-04-07T20:47:20.850Z,120.87
2019-04-07T20:49:58.790Z,118.20
2019-04-07T20:52:36.206Z,123.53
2019-04-07T20:55:15.383Z,124.80
2019-04-07T20:58:12.228Z,136.43
2019-04-07T21:00:52.252Z,131.40
2019-04-07T21:03:25.193Z,144.57
2019-04-07T21:06:03.303Z,141.88
2019-04-07T21:08:49.543Z,150.10
2019-04-07T21:11:21.560Z,147.90
2019-04-07T21:13:52.861Z,152.03
2019-04-07T21:16:41.165Z,154.80
2019-04-07T21:19:12.508Z,168.20
2019-04-07T21:21:45.622Z,166.33
2019-04-07T21:24:29.272Z,158.97
2019-04-07T21:27:02.467Z,168.33
2019-04-07T21:29:34.477Z,171.18
2019-04-07T21:32:09.649Z,182.70
2019-04-07T21:35:00.361Z,190.00
2019-04-07T21:37:48.973Z,170.03
2019-04-07T21:40:18.747Z,172.35
2019-04-07T21:43:02.666Z,179.97
2019-04-07T21:45:40.995Z,192.80
2019-04-07T21:48:09.680Z,187.03
2019-04-07T21:50:42.508Z,188.47
2019-04-07T21:53:26.038Z,192.50
2019-04-07T21:55:57.770Z,185.50
2019-04-07T21:58:34.591Z,189.17
2019-04-07T22:01:09.490Z,184.72
2019-04-07T22:03:45.480Z,187.43
2019-04-07T22:06:23.056Z,190.23
2019-04-07T22:08:54.232Z,189.72
2019-04-07T22:11:26.719Z,190.07
2019-04-07T22:13:55.416Z,195.60
2019-04-07T22:16:25.582Z,185.48
2019-04-07T22:18:56.908Z,186.22
2019-04-07T22:21:26.359Z,194.22
2019-04-07T22:23:56.198Z,201.07
2019-04-07T22:26:26.379Z,194.47
2019-04-07T22:28:56.912Z,199.80
2019-04-07T22:31:31.380Z,192.90
2019-04-07T22:34:02.362Z,198.67
2019-04-07T22:36:31.908Z,210.67
2019-04-07T22:39:02.483Z,202.70
2019-04-07T22:41:33.649Z,204.27
2019-04-07T22:44:03.839Z,204.97
2019-04-07T22:46:33.498Z,186.07
2019-04-07T22:49:03.124Z,209.07
2019-04-07T22:51:32.747Z,201.50
2019-04-07T22:54:03.227Z,202.60
2019-04-07T22:56:36.395Z,197.53
2019-04-07T22:59:06.014Z,206.63
2019-04-07T23:01:36.322Z,211.97
2019-04-07T23:04:05.746Z,205.70
2019-04-07T23:06:35.100Z,208.10
2019-04-07T23:09:06.678Z,207.90
2019-04-07T23:11:36.494Z,203.73
2019-04-07T23:14:05.968Z,204.57
2019-04-07T23:16:35.979Z,208.70
2019-04-07T23:19:06.731Z,199.90
2019-04-07T23:21:37.478Z,209.23
2019-04-07T23:24:08.004Z,209.30
2019-04-07T23:26:38.220Z,217.90
2019-04-07T23:29:07.983Z,217.83
2019-04-07T23:31:38.385Z,238.80
2019-04-07T23:34:08.439Z,210.63
2019-04-07T23:36:38.245Z,219.57
2019-04-07T23:39:08.019Z,243.37
2019-04-07T23:41:37.476Z,244.10
2019-04-07T23:44:07.351Z,236.23
2019-04-07T23:46:36.773Z,236.77
2019-04-07T23:49:06.211Z,245.27
2019-04-07T23:51:35.619Z,245.17
2019-04-07T23:54:12.631Z,248.63
2019-04-07T23:56:43.631Z,241.27
2019-04-07T23:59:14.731Z,250.97
